Weather at Ischia Casamicciola Terme Heliport

Public forecast

Using degrees Celsius for public forecast. Weather courtesy of forecast.io.

Closest aviation weather report (METAR) to Ischia Casamicciola Terme Heliport

Closest report is Naples International Airport, 19.6 nm (36.3 km) ENE.

2023/04/01 20:20 (retrieved 22 minutes ago)

LIRN 012020Z 21004KT 9999 BKN070 13/10 Q1009 NOSIG

Closest aviation forecast (TAF) to Ischia Casamicciola Terme Heliport

Closest forecast is Naples International Airport, 19.6 nm (36.3 km) ENE.

2023/04/01 18:21 (retrieved 2 hours ago)

TAF LIRN 011700Z 0118/0218 VRB05KT 9999 FEW040 BECMG 0210/0212 19010KT TEMPO 0215/0218 SHRA